Time;durP1;ratioP1;P1;durP2;ratioP2;P2;SDS_P1;SDS_P2;PMS_P1;PMS_P2;Temp;Humidity;BMP_temperature;BMP_pressure;BME280_temperature;BME280_humidity;BME280_pressure;Samples;Min_cycle;Max_cycle;Signal;HPM_P1;HPM_P2
2022/05/15 00:01:04;;;;;;;5.80;4.63;;;;;;;19.38;97.57;100444.34;4936743;29;20113;-76
2022/05/15 00:03:29;;;;;;;6.60;4.03;;;;;;;19.21;98.27;100412.06;4950687;29;20050;-76
2022/05/15 00:05:58;;;;;;;8.32;4.50;;;;;;;19.17;97.02;100403.34;4950510;29;20031;-75
2022/05/15 00:08:26;;;;;;;8.55;4.38;;;;;;;19.38;97.50;100433.88;4950433;29;20055;-73
2022/05/15 00:10:53;;;;;;;6.40;4.50;;;;;;;19.40;98.12;100437.38;4950690;29;20035;-73
2022/05/15 00:13:19;;;;;;;6.32;4.88;;;;;;;19.40;98.76;100434.75;4950252;29;20081;-75
2022/05/15 00:15:49;;;;;;;6.30;4.53;;;;;;;19.32;99.02;100428.66;4968678;28;20417;-75
2022/05/15 00:18:15;;;;;;;6.88;4.60;;;;;;;19.32;99.52;100433.03;4991379;28;20038;-73
2022/05/15 00:20:41;;;;;;;8.30;4.63;;;;;;;19.31;99.80;100439.97;4991562;28;20037;-75
2022/05/15 00:23:08;;;;;;;6.43;4.80;;;;;;;19.32;100.00;100443.50;4991168;28;20113;-75
2022/05/15 00:25:34;;;;;;;7.72;4.70;;;;;;;19.30;100.00;100440.00;4991704;28;20026;-75
2022/05/15 00:27:59;;;;;;;7.78;4.93;;;;;;;19.23;100.00;100433.88;4991293;28;20031;-74
2022/05/15 00:30:25;;;;;;;7.00;4.95;;;;;;;19.30;100.00;100453.97;4991211;28;20062;-78
2022/05/15 00:32:51;;;;;;;5.75;5.00;;;;;;;19.10;100.00;100439.97;4991092;28;20448;-74
2022/05/15 00:35:17;;;;;;;9.20;5.28;;;;;;;19.14;100.00;100455.69;4991532;28;20026;-73
2022/05/15 00:37:42;;;;;;;8.02;5.40;;;;;;;18.88;100.00;100450.38;4991116;28;20492;-73
2022/05/15 00:40:09;;;;;;;7.22;5.38;;;;;;;18.82;100.00;100460.81;4991237;28;20026;-73
2022/05/15 00:42:35;;;;;;;7.78;5.03;;;;;;;18.82;100.00;100458.22;4991276;28;20060;-74
2022/05/15 00:45:02;;;;;;;7.35;5.13;;;;;;;18.88;100.00;100464.31;4991507;28;20034;-72
2022/05/15 00:47:27;;;;;;;8.65;4.93;;;;;;;18.67;100.00;100422.44;4956732;28;20584;-74
2022/05/15 00:49:54;;;;;;;7.32;5.00;;;;;;;18.93;100.00;100466.97;4991474;28;20105;-73
2022/05/15 00:52:24;;;;;;;6.60;4.70;;;;;;;18.94;100.00;100458.28;4994387;28;20026;-74
2022/05/15 00:54:55;;;;;;;6.72;4.90;;;;;;;18.87;100.00;100459.09;4995018;28;20041;-74
2022/05/15 00:57:26;;;;;;;8.27;5.07;;;;;;;18.94;100.00;100462.63;4994794;28;20053;-74
2022/05/15 00:59:51;;;;;;;5.85;5.25;;;;;;;18.90;100.00;100466.94;4995040;28;20030;-74
2022/05/15 01:02:19;;;;;;;6.53;5.28;;;;;;;18.84;100.00;100465.19;4995020;28;20045;-74
2022/05/15 01:04:46;;;;;;;7.43;4.95;;;;;;;18.78;100.00;100456.44;4995049;28;20030;-73
2022/05/15 01:07:12;;;;;;;5.85;4.63;;;;;;;18.64;100.00;100446.81;4994959;28;20039;-74
2022/05/15 01:09:37;;;;;;;7.30;5.38;;;;;;;18.53;100.00;100451.09;4994784;28;20026;-73
2022/05/15 01:12:04;;;;;;;7.25;5.50;;;;;;;18.62;100.00;100456.41;4994838;28;20048;-72
2022/05/15 01:14:31;;;;;;;7.80;5.15;;;;;;;18.58;100.00;100452.88;4994883;28;20054;-71
2022/05/15 01:16:57;;;;;;;7.80;4.95;;;;;;;18.41;100.00;100447.59;4977474;28;20030;-74
2022/05/15 01:19:35;;;;;;;8.43;4.78;;;;;;;18.30;100.00;100440.56;4994997;28;20145;-73
2022/05/15 01:22:01;;;;;;;5.95;4.63;;;;;;;18.37;100.00;100466.75;4994435;28;20035;-73
2022/05/15 01:24:27;;;;;;;6.40;4.82;;;;;;;18.30;100.00;100441.44;4994268;28;20069;-70
2022/05/15 01:26:54;;;;;;;6.80;4.50;;;;;;;18.40;100.00;100460.66;4977285;28;20078;-71
2022/05/15 01:29:29;;;;;;;6.95;4.90;;;;;;;18.30;100.00;100432.75;4994311;28;20029;-71
2022/05/15 01:31:55;;;;;;;8.43;4.95;;;;;;;18.22;100.00;100425.72;4994424;28;20026;-71
2022/05/15 01:34:21;;;;;;;7.15;4.88;;;;;;;18.28;100.00;100451.03;4994187;28;20113;-78
2022/05/15 01:36:48;;;;;;;7.72;4.78;;;;;;;18.24;100.00;100457.97;4994047;28;20465;-73
2022/05/15 01:39:14;;;;;;;5.95;4.65;;;;;;;18.13;100.00;100445.72;4994977;28;20185;-74
2022/05/15 01:41:39;;;;;;;10.63;4.80;;;;;;;18.04;100.00;100442.16;4994368;28;20031;-76
2022/05/15 01:44:05;;;;;;;5.53;4.15;;;;;;;18.02;100.00;100443.91;4994233;28;20046;-73
2022/05/15 01:46:31;;;;;;;7.75;4.82;;;;;;;17.90;100.00;100436.81;4994101;28;20022;-74
2022/05/15 01:48:59;;;;;;;5.47;4.53;;;;;;;17.92;100.00;100442.94;4994264;28;20034;-74
2022/05/15 01:51:25;;;;;;;5.07;4.20;;;;;;;17.85;100.00;100450.75;4994013;28;20034;-74
2022/05/15 01:53:51;;;;;;;5.75;4.78;;;;;;;17.54;100.00;100435.72;4994175;28;20113;-74
2022/05/15 01:56:17;;;;;;;7.60;4.80;;;;;;;17.27;100.00;100412.88;4994126;28;20109;-74
2022/05/15 01:58:43;;;;;;;6.85;4.60;;;;;;;17.18;100.00;100415.41;4994053;28;20057;-74
2022/05/15 02:01:09;;;;;;;5.90;4.70;;;;;;;17.24;100.00;100431.97;4994316;28;20073;-74
2022/05/15 02:03:34;;;;;;;7.05;4.25;;;;;;;17.25;100.00;100436.34;4993779;28;20030;-74
2022/05/15 02:06:01;;;;;;;8.90;5.32;;;;;;;17.36;100.00;100443.38;4943333;28;20050;-74
2022/05/15 02:08:30;;;;;;;5.82;5.00;;;;;;;17.43;100.00;100459.13;4993810;28;20045;-72
2022/05/15 02:10:56;;;;;;;10.00;4.47;;;;;;;17.45;100.00;100451.31;4994113;28;20034;-74
2022/05/15 02:13:21;;;;;;;5.65;4.60;;;;;;;17.36;100.00;100435.56;4993415;28;20519;-74
2022/05/15 02:15:47;;;;;;;6.18;4.72;;;;;;;17.34;100.00;100443.38;4993784;28;20035;-76
2022/05/15 02:18:12;;;;;;;7.10;5.20;;;;;;;17.22;100.00;100431.13;4993762;28;20104;-74
2022/05/15 02:20:38;;;;;;;6.80;4.88;;;;;;;17.23;100.00;100448.50;4993537;28;20033;-74
2022/05/15 02:23:03;;;;;;;8.05;5.35;;;;;;;17.43;100.00;100468.69;4993685;28;20109;-75
2022/05/15 02:25:29;;;;;;;7.55;4.82;;;;;;;17.33;100.00;100448.59;4993670;28;20033;-75
2022/05/15 02:27:54;;;;;;;8.07;5.10;;;;;;;17.33;100.00;100466.84;4993615;28;20032;-77
2022/05/15 02:30:21;;;;;;;5.78;4.90;;;;;;;17.02;100.00;100432.66;4959133;28;20042;-73
2022/05/15 02:32:47;;;;;;;8.07;5.10;;;;;;;17.19;100.00;100449.34;4975880;28;20560;-75
2022/05/15 02:35:12;;;;;;;6.03;5.15;;;;;;;17.35;100.00;100466.00;4993220;28;20123;-74
2022/05/15 02:37:38;;;;;;;8.38;5.63;;;;;;;17.21;100.00;100438.91;4993542;28;20096;-74
2022/05/15 02:40:05;;;;;;;5.95;4.82;;;;;;;17.30;100.00;100462.47;4993242;28;20027;-76
2022/05/15 02:42:31;;;;;;;9.63;5.55;;;;;;;17.23;100.00;100452.84;4993377;28;20033;-73
2022/05/15 02:44:57;;;;;;;6.88;5.50;;;;;;;17.36;100.00;100461.66;4993281;28;20029;-74
2022/05/15 02:47:23;;;;;;;7.15;5.50;;;;;;;17.52;100.00;100454.84;4975781;28;20416;-75
2022/05/15 02:52:32;;;;;;;7.28;5.15;;;;;;;17.84;100.00;100473.34;4993100;28;20514;-71
2022/05/15 02:54:58;;;;;;;6.85;5.28;;;;;;;17.87;100.00;100475.09;4992907;28;20030;-74
2022/05/15 02:57:23;;;;;;;5.53;4.80;;;;;;;17.98;100.00;100472.59;4992953;28;20038;-74
2022/05/15 02:59:49;;;;;;;7.63;5.07;;;;;;;18.11;100.00;100482.28;4992880;28;20034;-74
2022/05/15 03:02:14;;;;;;;8.80;5.05;;;;;;;18.10;100.00;100480.53;4992485;28;20105;-75
2022/05/15 03:04:39;;;;;;;10.57;5.43;;;;;;;18.11;100.00;100485.75;4958427;28;20047;-74
2022/05/15 03:07:06;;;;;;;9.27;4.82;;;;;;;17.89;100.00;100474.25;4992571;28;20026;-76
2022/05/15 03:09:32;;;;;;;10.98;5.13;;;;;;;17.99;100.00;100510.94;4992702;28;20037;-77
2022/05/15 03:11:58;;;;;;;8.93;5.32;;;;;;;18.02;100.00;100490.03;4992601;28;20563;-74
2022/05/15 03:14:23;;;;;;;6.50;4.93;;;;;;;17.96;100.00;100470.00;4992051;28;20089;-77
2022/05/15 03:16:49;;;;;;;7.18;4.90;;;;;;;18.13;100.00;100495.34;4992145;28;20515;-74
2022/05/15 03:19:14;;;;;;;6.95;4.90;;;;;;;18.22;100.00;100501.50;4975237;28;20030;-72
2022/05/15 03:21:40;;;;;;;7.47;5.40;;;;;;;18.27;100.00;100497.19;4974776;28;20036;-71
2022/05/15 03:24:11;;;;;;;6.03;4.68;;;;;;;18.38;100.00;100504.19;4992650;28;20381;-76
2022/05/15 03:26:43;;;;;;;7.38;5.70;;;;;;;18.50;100.00;100512.09;4992378;28;20022;-74
2022/05/15 03:29:12;;;;;;;8.85;5.32;;;;;;;18.48;100.00;100505.13;4992150;28;20050;-74
2022/05/15 03:31:39;;;;;;;8.65;5.30;;;;;;;18.34;100.00;100476.31;4992261;28;20037;-76
2022/05/15 03:34:06;;;;;;;6.75;4.95;;;;;;;18.49;100.00;100499.03;4992224;28;20041;-74
2022/05/15 03:36:32;;;;;;;6.63;4.80;;;;;;;18.48;100.00;100502.50;4992390;28;20026;-73
2022/05/15 03:38:59;;;;;;;10.38;4.90;;;;;;;18.15;100.00;100485.78;4992223;28;20437;-72
2022/05/15 03:41:24;;;;;;;7.45;5.10;;;;;;;18.11;100.00;100474.44;4992319;28;20026;-75
2022/05/15 03:43:50;;;;;;;7.55;5.32;;;;;;;18.40;100.00;100523.38;4992073;28;20113;-71
2022/05/15 03:46:15;;;;;;;7.03;5.25;;;;;;;18.33;100.00;100503.31;4992114;28;20454;-74
2022/05/15 03:48:41;;;;;;;7.43;5.38;;;;;;;18.49;100.00;100523.44;4992209;28;20034;-74
2022/05/15 03:51:07;;;;;;;7.05;5.15;;;;;;;18.35;100.00;100484.16;4992202;28;20081;-75
2022/05/15 03:53:33;;;;;;;6.78;4.88;;;;;;;18.63;100.00;100515.66;4992026;28;20030;-72
2022/05/15 03:55:59;;;;;;;6.32;4.88;;;;;;;18.64;100.00;100517.44;4992113;28;20105;-73
2022/05/15 03:58:27;;;;;;;7.43;5.05;;;;;;;18.61;100.00;100513.91;4991795;28;20477;-74
2022/05/15 04:00:53;;;;;;;9.30;5.63;;;;;;;18.70;100.00;100517.41;4992026;28;20032;-77
2022/05/15 04:03:18;;;;;;;7.68;5.72;;;;;;;18.74;100.00;100515.69;4992083;28;20105;-71
2022/05/15 04:05:44;;;;;;;6.75;5.07;;;;;;;18.67;100.00;100506.09;4991725;28;20023;-74
2022/05/15 04:08:10;;;;;;;7.32;5.20;;;;;;;18.69;100.00;100513.09;4991896;28;20473;-74
2022/05/15 04:10:36;;;;;;;7.20;5.55;;;;;;;18.78;100.00;100516.59;4991889;28;20026;-72
2022/05/15 04:13:01;;;;;;;7.00;6.10;;;;;;;18.83;100.00;100520.97;4991302;28;20042;-76
2022/05/15 04:15:27;;;;;;;8.48;5.55;;;;;;;18.73;100.00;100503.50;4991594;28;20041;-75
2022/05/15 04:17:52;;;;;;;7.50;5.55;;;;;;;18.82;100.00;100505.28;4991987;28;20767;-71
2022/05/15 04:20:21;;;;;;;7.95;5.15;;;;;;;18.74;100.00;100513.97;4991584;28;20389;-71
2022/05/15 04:22:47;;;;;;;10.02;5.32;;;;;;;18.64;100.00;100516.53;4991666;28;20031;-77
2022/05/15 04:25:13;;;;;;;8.27;5.57;;;;;;;18.62;100.00;100510.41;4957877;28;20041;-73
2022/05/15 04:27:39;;;;;;;7.85;5.55;;;;;;;18.65;100.00;100511.31;4974081;28;20563;-73
2022/05/15 04:30:06;;;;;;;6.78;5.35;;;;;;;18.58;100.00;100507.78;4991974;28;20124;-70
2022/05/15 04:32:32;;;;;;;7.95;5.05;;;;;;;18.62;100.00;100507.78;4991532;28;20089;-73
2022/05/15 04:34:57;;;;;;;8.13;5.20;;;;;;;18.74;100.00;100519.19;4991345;28;20453;-70
2022/05/15 04:37:23;;;;;;;5.90;5.03;;;;;;;18.75;100.00;100525.28;4991490;28;20022;-73
2022/05/15 04:39:48;;;;;;;7.93;5.18;;;;;;;18.64;100.00;100522.66;4991472;28;20116;-71
2022/05/15 04:42:14;;;;;;;7.88;6.00;;;;;;;18.37;100.00;100518.16;4991219;28;20065;-71
2022/05/15 04:44:39;;;;;;;7.07;6.38;;;;;;;18.16;100.00;100509.31;4991657;28;20041;-73
2022/05/15 04:47:05;;;;;;;7.10;5.80;;;;;;;17.95;100.00;100523.09;4991418;28;20041;-71
2022/05/15 04:49:31;;;;;;;8.88;6.28;;;;;;;17.77;100.00;100524.66;4991244;28;20045;-76
2022/05/15 04:51:56;;;;;;;9.75;6.75;;;;;;;17.78;100.00;100522.91;4991275;28;20038;-76
2022/05/15 04:54:21;;;;;;;8.77;6.72;;;;;;;17.84;100.00;100527.34;4991223;28;20461;-76
2022/05/15 04:56:47;;;;;;;10.50;8.27;;;;;;;17.77;100.00;100526.41;4991312;28;20037;-74
2022/05/15 04:59:13;;;;;;;12.00;6.70;;;;;;;17.69;100.00;100525.47;4974125;28;20513;-73
2022/05/15 05:01:38;;;;;;;7.55;6.38;;;;;;;17.78;100.00;100528.13;4991506;28;20400;-77
2022/05/15 05:04:04;;;;;;;8.88;6.10;;;;;;;17.82;100.00;100539.50;4991248;28;20481;-74
2022/05/15 05:06:29;;;;;;;7.40;6.22;;;;;;;17.93;100.00;100538.72;4991034;28;20027;-74
2022/05/15 05:08:55;;;;;;;10.88;6.50;;;;;;;17.95;100.00;100526.56;4991251;28;20108;-77
2022/05/15 05:11:21;;;;;;;9.60;7.22;;;;;;;18.21;100.00;100541.56;4991118;28;20104;-76
2022/05/15 05:13:47;;;;;;;7.10;5.68;;;;;;;18.23;100.00;100539.84;4991219;28;20054;-71
2022/05/15 05:16:13;;;;;;;7.00;5.70;;;;;;;18.20;100.00;100521.50;4991574;28;20407;-74
2022/05/15 05:18:38;;;;;;;8.35;6.00;;;;;;;18.23;100.00;100515.44;4991241;28;20453;-74
2022/05/15 05:21:04;;;;;;;7.13;5.55;;;;;;;18.39;100.00;100526.84;4990934;28;20417;-76
2022/05/15 05:23:30;;;;;;;6.20;4.80;;;;;;;18.64;100.00;100537.44;4991000;28;20070;-72
2022/05/15 05:25:55;;;;;;;7.30;4.88;;;;;;;18.74;100.00;100537.50;4990905;28;20038;-74
2022/05/15 05:28:22;;;;;;;6.07;4.88;;;;;;;18.98;100.00;100542.84;4991098;28;20031;-73
2022/05/15 05:30:47;;;;;;;7.00;5.18;;;;;;;19.13;100.00;100542.03;4973635;28;20035;-70
2022/05/15 05:33:13;;;;;;;6.65;4.90;;;;;;;19.26;100.00;100532.47;4990978;28;20398;-70
2022/05/15 05:35:39;;;;;;;6.15;5.25;;;;;;;19.20;100.00;100499.28;4990906;28;20038;-71
2022/05/15 05:38:05;;;;;;;6.78;5.57;;;;;;;19.44;100.00;100529.00;4993492;28;20026;-74
2022/05/15 05:40:31;;;;;;;6.68;4.72;;;;;;;19.63;100.00;100537.78;4994475;28;20084;-75
2022/05/15 05:42:57;;;;;;;8.43;4.82;;;;;;;19.59;100.00;100528.16;4994716;28;20080;-70
2022/05/15 05:45:23;;;;;;;5.25;4.75;;;;;;;19.51;100.00;100508.06;4994615;28;20113;-73
2022/05/15 05:47:50;;;;;;;6.13;4.72;;;;;;;19.66;100.00;100537.75;4994329;28;20066;-76
2022/05/15 05:50:18;;;;;;;6.75;4.82;;;;;;;19.70;100.00;100536.88;4994382;28;20523;-72
2022/05/15 05:52:44;;;;;;;8.70;5.18;;;;;;;19.84;100.00;100537.81;4976869;28;20022;-70
2022/05/15 05:55:15;;;;;;;10.45;5.50;;;;;;;20.00;100.00;100532.53;4993928;28;20038;-70
2022/05/15 05:57:41;;;;;;;7.10;4.95;;;;;;;19.67;100.00;100502.84;4994303;28;20053;-73
2022/05/15 06:00:09;;;;;;;7.70;4.88;;;;;;;19.90;100.00;100542.19;4994156;28;20473;-74
2022/05/15 06:02:35;;;;;;;8.57;4.72;;;;;;;19.97;100.00;100541.28;4993834;28;20165;-75
2022/05/15 06:05:00;;;;;;;9.45;5.65;;;;;;;20.08;100.00;100541.28;4993997;28;20102;-73
2022/05/15 06:07:27;;;;;;;8.38;5.45;;;;;;;20.19;100.00;100544.75;4976557;28;20034;-72
2022/05/15 06:09:53;;;;;;;7.68;5.53;;;;;;;20.24;100.00;100533.38;4993941;28;20457;-71
2022/05/15 06:12:22;;;;;;;11.55;5.88;;;;;;;20.37;100.00;100540.34;4976533;28;20409;-70
2022/05/15 06:14:48;;;;;;;7.33;5.47;;;;;;;20.32;100.00;100529.00;4994009;28;20042;-74
2022/05/15 06:17:14;;;;;;;7.72;5.53;;;;;;;20.36;100.00;100522.88;4993959;28;20023;-74
2022/05/15 06:19:40;;;;;;;7.45;5.75;;;;;;;20.37;100.00;100532.47;4993678;28;20493;-73
2022/05/15 06:22:06;;;;;;;7.43;6.20;;;;;;;20.19;100.00;100539.50;4993756;28;20045;-71
2022/05/15 06:24:32;;;;;;;8.15;6.30;;;;;;;20.20;100.00;100535.16;4993695;28;20030;-77
2022/05/15 06:26:59;;;;;;;8.10;6.28;;;;;;;20.25;100.00;100525.53;4993736;28;20038;-75
2022/05/15 06:29:26;;;;;;;8.77;6.78;;;;;;;20.45;100.00;100535.06;4993660;28;20404;-74
2022/05/15 06:31:51;;;;;;;15.55;6.68;;;;;;;20.52;100.00;100532.47;4993684;28;20034;-75
2022/05/15 06:34:17;;;;;;;10.30;6.43;;;;;;;20.62;100.00;100525.44;4993407;28;20018;-71
2022/05/15 06:36:42;;;;;;;8.57;6.72;;;;;;;20.38;100.00;100508.00;4993197;28;20046;-72
2022/05/15 06:39:08;;;;;;;8.25;6.28;;;;;;;20.44;100.00;100497.50;4993349;28;20022;-75
2022/05/15 06:41:34;;;;;;;10.75;6.60;;;;;;;20.66;100.00;100521.03;4993586;28;20092;-76
2022/05/15 06:44:00;;;;;;;10.80;6.97;;;;;;;20.44;100.00;100531.59;4993704;28;20034;-74
2022/05/15 06:46:27;;;;;;;10.50;6.13;;;;;;;20.47;100.00;100526.34;4993075;28;20026;-75
2022/05/15 06:48:52;;;;;;;7.85;7.05;;;;;;;20.50;100.00;100528.09;4991981;28;20118;-75
2022/05/15 06:51:18;;;;;;;6.90;6.10;;;;;;;20.41;100.00;100497.53;4993196;28;20034;-74
2022/05/15 06:53:45;;;;;;;7.55;5.80;;;;;;;20.81;100.00;100528.00;4975466;28;20030;-75
2022/05/15 06:58:55;;;;;;;7.50;6.45;;;;;;;21.22;100.00;100534.81;4993436;28;20038;-73
2022/05/15 07:01:20;;;;;;;8.40;6.93;;;;;;;21.33;100.00;100534.72;4993083;28;20034;-74
2022/05/15 07:03:46;;;;;;;7.47;6.22;;;;;;;21.36;100.00;100528.56;4992960;28;20055;-73
2022/05/15 07:06:11;;;;;;;7.60;6.25;;;;;;;21.51;100.00;100544.25;4993115;28;20117;-74
2022/05/15 07:08:39;;;;;;;8.40;6.80;;;;;;;21.54;100.00;100551.22;4993061;28;20033;-70
2022/05/15 07:11:04;;;;;;;7.68;6.05;;;;;;;21.65;100.00;100554.69;4992875;28;20049;-73
2022/05/15 07:13:32;;;;;;;8.25;6.70;;;;;;;21.80;100.00;100545.81;4992690;28;20046;-75
2022/05/15 07:15:58;;;;;;;8.90;6.85;;;;;;;21.84;100.00;100544.03;4992546;28;20540;-75
2022/05/15 07:18:23;;;;;;;8.88;6.68;;;;;;;21.97;100.00;100541.25;4992684;28;20118;-72
2022/05/15 07:20:50;;;;;;;9.63;6.97;;;;;;;21.98;100.00;100547.38;4992636;28;20595;-71
2022/05/15 07:23:16;;;;;;;7.97;6.47;;;;;;;22.03;100.00;100545.63;4992544;28;20033;-71
2022/05/15 07:25:42;;;;;;;8.57;7.55;;;;;;;21.68;100.00;100462.69;4992442;28;20030;-74
2022/05/15 07:28:07;;;;;;;9.82;7.45;;;;;;;22.30;100.00;100547.06;4992514;28;20023;-74
2022/05/15 07:30:33;;;;;;;12.05;6.85;;;;;;;22.27;100.00;100544.50;4992494;28;20100;-73
2022/05/15 07:32:58;;;;;;;7.15;6.25;;;;;;;22.38;98.38;100547.03;4992123;28;20113;-73
2022/05/15 07:35:24;;;;;;;8.43;6.60;;;;;;;22.35;100.00;100547.03;4992602;28;20022;-76
2022/05/15 07:37:49;;;;;;;10.93;6.85;;;;;;;22.43;97.57;100542.59;4992369;28;20041;-75
2022/05/15 07:40:15;;;;;;;9.05;6.57;;;;;;;22.51;96.80;100536.38;4992493;28;20032;-73
2022/05/15 07:42:41;;;;;;;8.38;6.28;;;;;;;22.57;97.65;100546.84;4992311;28;20481;-71
2022/05/15 07:45:08;;;;;;;8.25;5.93;;;;;;;22.62;96.01;100545.03;4992174;28;20112;-74
2022/05/15 07:47:33;;;;;;;10.02;7.20;;;;;;;22.55;97.36;100543.34;4992112;28;20527;-76
2022/05/15 07:49:59;;;;;;;10.73;7.15;;;;;;;22.52;96.96;100533.72;4992226;28;20069;-73
2022/05/15 07:52:24;;;;;;;9.27;7.13;;;;;;;22.50;95.27;100547.78;4992208;28;20030;-71
2022/05/15 07:54:50;;;;;;;12.02;6.80;;;;;;;22.51;95.91;100544.28;4991832;28;20030;-71
2022/05/15 07:57:15;;;;;;;8.50;6.93;;;;;;;22.63;99.35;100544.16;4992014;28;20026;-75
2022/05/15 07:59:41;;;;;;;8.65;6.63;;;;;;;22.76;98.88;100537.81;4992398;28;20089;-74
2022/05/15 08:02:06;;;;;;;8.85;7.18;;;;;;;22.82;97.03;100533.38;4991699;28;20039;-72
2022/05/15 08:08:00;;;;;;;10.90;6.97;;;;;;;22.86;98.17;100549.09;4991735;28;20030;-74
2022/05/15 08:10:07;;;;;;;8.60;7.05;;;;;;;22.84;94.00;100544.75;4992039;28;20045;-75
2022/05/15 08:12:34;;;;;;;7.95;6.95;;;;;;;22.86;95.91;100542.97;4991598;28;20061;-74
2022/05/15 08:15:00;;;;;;;8.63;6.65;;;;;;;22.90;93.87;100550.84;4991985;28;20041;-73
2022/05/15 08:17:26;;;;;;;8.93;7.13;;;;;;;22.78;95.15;100549.22;4991528;28;20022;-71
2022/05/15 08:25:19;;;;;;;8.98;6.07;;;;;;;22.65;94.41;100523.06;4991686;28;20576;-74
2022/05/15 08:27:45;;;;;;;8.98;6.22;;;;;;;22.82;95.12;100554.41;4957170;28;20042;-77
2022/05/15 08:30:11;;;;;;;7.28;6.07;;;;;;;22.89;95.13;100556.09;4991676;28;20113;-76
2022/05/15 08:32:37;;;;;;;9.55;6.18;;;;;;;22.93;93.83;100547.28;4991513;28;20030;-71
2022/05/15 08:35:02;;;;;;;7.88;6.10;;;;;;;22.83;91.35;100524.59;4991343;28;20462;-73
2022/05/15 08:37:28;;;;;;;8.45;6.43;;;;;;;23.16;95.97;100546.13;4991548;28;20034;-73
2022/05/15 08:39:53;;;;;;;8.77;6.72;;;;;;;23.25;94.18;100554.78;4973114;28;20050;-70
2022/05/15 08:42:28;;;;;;;8.30;6.20;;;;;;;23.34;93.98;100564.31;4991351;28;20118;-74
2022/05/15 08:44:58;;;;;;;8.15;6.07;;;;;;;23.38;90.10;100541.44;4991738;28;20081;-72
2022/05/15 08:47:55;;;;;;;7.55;5.50;;;;;;;23.49;86.60;100559.69;4991423;28;20053;-73
2022/05/15 08:50:27;;;;;;;10.20;5.53;;;;;;;23.53;85.61;100559.63;4931247;29;20044;-74
2022/05/15 08:53:01;;;;;;;7.38;6.38;;;;;;;23.67;90.67;100561.19;4931181;29;20040;-76
2022/05/15 08:55:43;;;;;;;11.35;5.60;;;;;;;23.85;85.80;100565.28;4899570;29;20040;-72
2022/05/15 08:58:21;;;;;;;8.63;5.85;;;;;;;24.04;85.96;100558.84;4931324;29;20103;-73
2022/05/15 09:00:52;;;;;;;9.13;5.20;;;;;;;24.15;83.39;100563.94;4931349;29;20075;-73
2022/05/15 09:03:27;;;;;;;7.18;6.03;;;;;;;24.13;84.55;100564.84;4931239;29;20300;-75
2022/05/15 09:06:04;;;;;;;8.20;6.00;;;;;;;24.22;86.21;100555.00;4931308;29;20031;-74
2022/05/15 09:08:54;;;;;;;8.38;6.05;;;;;;;24.26;85.22;100553.16;4931090;29;20422;-70
2022/05/15 09:11:26;;;;;;;12.82;6.22;;;;;;;24.39;84.45;100552.03;4931333;29;20055;-70
2022/05/15 09:13:56;;;;;;;8.55;5.70;;;;;;;24.45;82.12;100550.16;4934307;29;20085;-75
2022/05/15 09:16:27;;;;;;;9.68;5.68;;;;;;;24.51;83.43;100543.03;4934928;29;20055;-71
2022/05/15 09:19:04;;;;;;;10.20;5.57;;;;;;;24.73;83.03;100547.91;4934680;29;20392;-73
2022/05/15 09:21:30;;;;;;;7.20;5.70;;;;;;;24.82;81.93;100542.44;4934574;29;20047;-78
2022/05/15 09:24:05;;;;;;;6.10;5.50;;;;;;;24.61;82.39;100534.91;4934497;29;20035;-72
2022/05/15 09:26:44;;;;;;;8.38;5.80;;;;;;;24.48;84.24;100521.09;4943345;28;20030;-74
2022/05/15 09:29:20;;;;;;;7.63;5.72;;;;;;;24.45;84.62;100522.03;4994724;28;20034;-77
2022/05/15 09:31:46;;;;;;;7.95;5.38;;;;;;;24.62;80.83;100545.44;4976741;28;20405;-73
2022/05/15 09:34:29;;;;;;;7.35;5.30;;;;;;;24.71;82.64;100540.00;4994643;28;20034;-71
2022/05/15 09:39:45;;;;;;;7.47;5.35;;;;;;;25.22;80.89;100547.75;4979897;28;20092;-73
2022/05/15 09:45:25;;;;;;;7.65;5.20;;;;;;;25.38;77.26;100535.06;4994656;28;20037;-73
2022/05/15 09:47:51;;;;;;;7.43;4.93;;;;;;;25.47;81.71;100537.50;4994450;28;20109;-71
2022/05/15 09:50:41;;;;;;;6.82;5.28;;;;;;;25.49;76.93;100535.69;4994078;28;20101;-73
2022/05/15 09:53:31;;;;;;;9.13;5.40;;;;;;;25.53;78.22;100526.78;4994187;28;20030;-74
2022/05/15 09:56:21;;;;;;;7.53;5.38;;;;;;;25.60;78.99;100524.88;4994241;28;20458;-74
2022/05/15 09:59:05;;;;;;;13.98;5.47;;;;;;;25.84;75.46;100528.66;4994019;28;20393;-71
2022/05/15 10:01:36;;;;;;;7.18;4.93;;;;;;;25.78;75.26;100491.78;4994076;28;20090;-74
2022/05/15 10:04:26;;;;;;;9.55;4.60;;;;;;;25.82;71.75;100519.88;4993667;28;20057;-74
2022/05/15 10:07:02;;;;;;;6.60;4.25;;;;;;;25.91;71.57;100513.50;4994006;28;20030;-71
2022/05/15 10:09:36;;;;;;;9.80;4.60;;;;;;;26.05;70.40;100511.34;4976417;28;20034;-74
2022/05/15 10:12:08;;;;;;;6.43;4.38;;;;;;;26.27;71.78;100510.78;4994169;28;20476;-74
2022/05/15 10:14:54;;;;;;;10.10;4.32;;;;;;;26.50;72.50;100507.50;4993958;28;20065;-73
2022/05/15 10:17:23;;;;;;;5.22;4.50;;;;;;;26.63;69.01;100484.16;4993507;28;20061;-73
2022/05/15 10:20:23;;;;;;;5.57;4.25;;;;;;;26.80;68.19;100499.59;4995061;28;20061;-70
2022/05/15 10:22:53;;;;;;;5.75;4.22;;;;;;;26.66;65.76;100485.91;4993888;28;20034;-71
2022/05/15 10:25:45;;;;;;;6.53;4.40;;;;;;;26.69;67.08;100491.09;4991496;28;20034;-74
2022/05/15 10:28:23;;;;;;;5.07;3.95;;;;;;;26.90;64.50;100487.81;4964464;28;20507;-74
2022/05/15 10:31:15;;;;;;;6.38;4.18;;;;;;;26.52;65.45;100483.63;4992997;28;20588;-72
2022/05/15 10:33:44;;;;;;;6.53;4.18;;;;;;;26.75;63.88;100467.09;4972469;28;20089;-72
2022/05/15 10:36:33;;;;;;;5.07;3.92;;;;;;;27.01;64.11;100474.22;4990350;28;20515;-74
2022/05/15 10:39:33;;;;;;;5.82;4.22;;;;;;;27.40;63.47;100467.72;4993041;28;20049;-76
2022/05/15 10:42:30;;;;;;;8.80;4.65;;;;;;;27.69;60.06;100464.09;4995560;28;20022;-74
2022/05/15 10:45:31;;;;;;;5.18;4.25;;;;;;;27.63;60.18;100472.25;4982251;28;20398;-74
2022/05/15 10:48:18;;;;;;;7.35;4.00;;;;;;;27.88;59.43;100468.75;4932551;29;20054;-72
2022/05/15 10:50:46;;;;;;;8.27;3.97;;;;;;;28.07;55.08;100471.66;4923636;29;20031;-72
2022/05/15 10:59:44;;;;;;;7.78;3.90;;;;;;;27.59;56.87;100458.25;4856462;29;20614;-72
2022/05/15 11:02:31;;;;;;;6.93;3.72;;;;;;;27.19;57.42;100459.53;4856870;29;20039;-72
2022/05/15 11:05:06;;;;;;;4.80;3.85;;;;;;;26.93;57.62;100463.88;4857112;29;20053;-74
2022/05/15 11:08:05;;;;;;;8.45;4.20;;;;;;;27.16;59.53;100469.38;4855868;29;20544;-74
2022/05/15 11:10:34;;;;;;;;;;;;;;;27.62;58.60;100461.72;4856445;29;20033;-72
2022/05/15 11:13:12;;;;;;;;;;;;;;;27.97;57.29;100456.97;4856131;29;20348;-72
2022/05/15 11:15:54;;;;;;;5.55;4.20;;;;;;;28.20;55.53;100453.47;4856295;29;19928;-74
2022/05/15 11:18:52;;;;;;;10.23;3.95;;;;;;;28.47;54.05;100445.41;4856303;29;20053;-73
2022/05/15 11:21:42;;;;;;;6.25;4.50;;;;;;;28.39;55.35;100433.28;4819100;29;20042;-72
2022/05/15 11:24:13;;;;;;;7.75;4.38;;;;;;;28.37;55.09;100423.66;4834615;29;20046;-73
2022/05/15 11:26:47;;;;;;;6.28;4.15;;;;;;;28.28;53.04;100422.22;4837320;29;20116;-73
2022/05/15 11:29:15;;;;;;;6.32;4.20;;;;;;;28.40;53.34;100434.19;4836613;29;20041;-73
2022/05/15 11:31:56;;;;;;;6.47;4.45;;;;;;;28.72;54.07;100426.75;4837179;29;20049;-73
2022/05/15 11:34:59;;;;;;;7.28;4.07;;;;;;;29.14;53.45;100430.41;4835915;29;20044;-73
2022/05/15 11:37:46;;;;;;;8.15;4.10;;;;;;;28.95;51.18;100420.53;4927231;29;20118;-74
2022/05/15 11:40:30;;;;;;;6.00;4.10;;;;;;;29.21;53.44;100421.28;4873963;29;20045;-73
2022/05/15 11:42:56;;;;;;;6.30;4.10;;;;;;;29.00;48.62;100423.03;4872475;29;20094;-73
2022/05/15 11:45:38;;;;;;;6.60;3.97;;;;;;;29.18;48.66;100418.72;4874018;29;20045;-73
2022/05/15 11:48:20;;;;;;;6.47;3.70;;;;;;;28.73;51.45;100421.38;4873963;29;20064;-71
2022/05/15 11:51:02;;;;;;;5.13;3.70;;;;;;;28.60;48.17;100404.19;4873742;29;20135;-73
2022/05/15 11:53:32;;;;;;;4.85;3.83;;;;;;;28.66;49.61;100397.75;4873403;29;20572;-73
2022/05/15 11:56:15;;;;;;;4.47;3.20;;;;;;;28.94;49.51;100409.97;4873942;29;20084;-75